sensor_id;sensor_type;location;lat;lon;timestamp;P1;durP1;ratioP1;P2;durP2;ratioP2
17606;SDS011;8922;52.240;20.980;2022-12-10T00:00:07;60.00;;;33.50;;
17606;SDS011;8922;52.240;20.980;2022-12-10T00:02:35;60.10;;;33.10;;
17606;SDS011;8922;52.240;20.980;2022-12-10T00:05:03;55.87;;;32.73;;
17606;SDS011;8922;52.240;20.980;2022-12-10T00:07:31;62.53;;;33.63;;
17606;SDS011;8922;52.240;20.980;2022-12-10T00:09:57;56.80;;;31.87;;
17606;SDS011;8922;52.240;20.980;2022-12-10T00:12:24;56.87;;;33.93;;
17606;SDS011;8922;52.240;20.980;2022-12-10T00:14:51;54.33;;;31.63;;
17606;SDS011;8922;52.240;20.980;2022-12-10T00:17:18;58.10;;;32.33;;
17606;SDS011;8922;52.240;20.980;2022-12-10T00:19:45;54.73;;;32.40;;
17606;SDS011;8922;52.240;20.980;2022-12-10T00:22:13;60.37;;;33.03;;
17606;SDS011;8922;52.240;20.980;2022-12-10T00:24:40;56.13;;;32.83;;
17606;SDS011;8922;52.240;20.980;2022-12-10T00:27:07;59.97;;;32.47;;
17606;SDS011;8922;52.240;20.980;2022-12-10T00:29:34;52.97;;;31.20;;
17606;SDS011;8922;52.240;20.980;2022-12-10T00:32:01;56.10;;;31.77;;
17606;SDS011;8922;52.240;20.980;2022-12-10T00:34:30;57.13;;;32.63;;
17606;SDS011;8922;52.240;20.980;2022-12-10T00:36:57;53.67;;;30.87;;
17606;SDS011;8922;52.240;20.980;2022-12-10T00:39:25;58.07;;;32.03;;
17606;SDS011;8922;52.240;20.980;2022-12-10T00:41:53;61.30;;;33.43;;
17606;SDS011;8922;52.240;20.980;2022-12-10T00:44:19;57.87;;;31.63;;
17606;SDS011;8922;52.240;20.980;2022-12-10T00:46:46;57.90;;;31.07;;
17606;SDS011;8922;52.240;20.980;2022-12-10T00:49:13;52.50;;;30.80;;
17606;SDS011;8922;52.240;20.980;2022-12-10T00:51:40;60.53;;;31.97;;
17606;SDS011;8922;52.240;20.980;2022-12-10T00:54:07;55.70;;;30.93;;
17606;SDS011;8922;52.240;20.980;2022-12-10T00:56:36;57.30;;;31.60;;
17606;SDS011;8922;52.240;20.980;2022-12-10T00:59:03;59.47;;;32.07;;
17606;SDS011;8922;52.240;20.980;2022-12-10T01:01:30;54.60;;;31.37;;
17606;SDS011;8922;52.240;20.980;2022-12-10T01:03:59;54.00;;;30.90;;
17606;SDS011;8922;52.240;20.980;2022-12-10T01:06:28;59.67;;;32.00;;
17606;SDS011;8922;52.240;20.980;2022-12-10T01:08:57;58.30;;;31.47;;
17606;SDS011;8922;52.240;20.980;2022-12-10T01:11:26;55.30;;;31.10;;
17606;SDS011;8922;52.240;20.980;2022-12-10T01:13:57;61.00;;;32.27;;
17606;SDS011;8922;52.240;20.980;2022-12-10T01:16:25;55.70;;;31.37;;
17606;SDS011;8922;52.240;20.980;2022-12-10T01:18:52;58.93;;;32.87;;
17606;SDS011;8922;52.240;20.980;2022-12-10T01:21:20;56.87;;;30.80;;
17606;SDS011;8922;52.240;20.980;2022-12-10T01:23:48;56.83;;;31.43;;
17606;SDS011;8922;52.240;20.980;2022-12-10T01:26:17;57.67;;;32.20;;
17606;SDS011;8922;52.240;20.980;2022-12-10T01:28:45;60.17;;;33.00;;
17606;SDS011;8922;52.240;20.980;2022-12-10T01:31:14;57.80;;;31.50;;
17606;SDS011;8922;52.240;20.980;2022-12-10T01:33:43;56.30;;;31.87;;
17606;SDS011;8922;52.240;20.980;2022-12-10T01:36:11;58.57;;;32.27;;
17606;SDS011;8922;52.240;20.980;2022-12-10T01:38:40;57.43;;;30.73;;
17606;SDS011;8922;52.240;20.980;2022-12-10T01:41:07;56.53;;;30.67;;
17606;SDS011;8922;52.240;20.980;2022-12-10T01:43:49;52.27;;;30.03;;
17606;SDS011;8922;52.240;20.980;2022-12-10T01:46:19;58.50;;;31.03;;
17606;SDS011;8922;52.240;20.980;2022-12-10T01:48:47;58.87;;;30.97;;
17606;SDS011;8922;52.240;20.980;2022-12-10T01:51:14;61.43;;;30.77;;
17606;SDS011;8922;52.240;20.980;2022-12-10T01:53:42;58.93;;;31.70;;
17606;SDS011;8922;52.240;20.980;2022-12-10T01:56:10;58.83;;;31.33;;
17606;SDS011;8922;52.240;20.980;2022-12-10T01:58:38;52.57;;;29.53;;
17606;SDS011;8922;52.240;20.980;2022-12-10T02:01:07;59.73;;;31.53;;
17606;SDS011;8922;52.240;20.980;2022-12-10T02:03:44;60.43;;;32.13;;
17606;SDS011;8922;52.240;20.980;2022-12-10T02:06:25;50.90;;;28.83;;
17606;SDS011;8922;52.240;20.980;2022-12-10T02:09:02;55.80;;;30.20;;
17606;SDS011;8922;52.240;20.980;2022-12-10T02:11:39;57.33;;;30.90;;
17606;SDS011;8922;52.240;20.980;2022-12-10T02:14:10;56.40;;;30.33;;
17606;SDS011;8922;52.240;20.980;2022-12-10T02:16:44;55.43;;;30.50;;
17606;SDS011;8922;52.240;20.980;2022-12-10T02:19:18;48.77;;;29.03;;
17606;SDS011;8922;52.240;20.980;2022-12-10T02:21:51;54.50;;;28.43;;
17606;SDS011;8922;52.240;20.980;2022-12-10T02:24:21;52.60;;;28.10;;
17606;SDS011;8922;52.240;20.980;2022-12-10T02:26:56;53.43;;;29.57;;
17606;SDS011;8922;52.240;20.980;2022-12-10T02:29:29;51.13;;;28.67;;
17606;SDS011;8922;52.240;20.980;2022-12-10T02:31:59;55.87;;;29.20;;
17606;SDS011;8922;52.240;20.980;2022-12-10T02:34:31;48.83;;;28.47;;
17606;SDS011;8922;52.240;20.980;2022-12-10T02:37:01;51.87;;;27.70;;
17606;SDS011;8922;52.240;20.980;2022-12-10T02:39:31;51.63;;;28.23;;
17606;SDS011;8922;52.240;20.980;2022-12-10T02:42:02;48.33;;;26.77;;
17606;SDS011;8922;52.240;20.980;2022-12-10T02:44:32;48.87;;;27.07;;
17606;SDS011;8922;52.240;20.980;2022-12-10T02:47:02;50.20;;;26.80;;
17606;SDS011;8922;52.240;20.980;2022-12-10T02:49:31;47.40;;;27.00;;
17606;SDS011;8922;52.240;20.980;2022-12-10T02:51:59;48.13;;;26.57;;
17606;SDS011;8922;52.240;20.980;2022-12-10T02:54:34;45.73;;;25.43;;
17606;SDS011;8922;52.240;20.980;2022-12-10T02:57:06;43.07;;;23.97;;
17606;SDS011;8922;52.240;20.980;2022-12-10T02:59:54;41.27;;;23.80;;
17606;SDS011;8922;52.240;20.980;2022-12-10T03:02:29;41.23;;;22.03;;
17606;SDS011;8922;52.240;20.980;2022-12-10T03:05:08;40.70;;;22.73;;
17606;SDS011;8922;52.240;20.980;2022-12-10T03:07:41;45.47;;;23.17;;
17606;SDS011;8922;52.240;20.980;2022-12-10T03:10:14;40.50;;;22.60;;
17606;SDS011;8922;52.240;20.980;2022-12-10T03:12:48;44.30;;;23.50;;
17606;SDS011;8922;52.240;20.980;2022-12-10T03:15:20;43.10;;;23.83;;
17606;SDS011;8922;52.240;20.980;2022-12-10T03:17:49;44.57;;;23.90;;
17606;SDS011;8922;52.240;20.980;2022-12-10T03:20:17;45.23;;;24.47;;
17606;SDS011;8922;52.240;20.980;2022-12-10T03:22:45;43.87;;;24.60;;
17606;SDS011;8922;52.240;20.980;2022-12-10T03:25:16;46.97;;;26.63;;
17606;SDS011;8922;52.240;20.980;2022-12-10T03:27:47;44.33;;;24.73;;
17606;SDS011;8922;52.240;20.980;2022-12-10T03:30:17;45.40;;;24.53;;
17606;SDS011;8922;52.240;20.980;2022-12-10T03:32:46;43.50;;;23.40;;
17606;SDS011;8922;52.240;20.980;2022-12-10T03:35:13;38.17;;;21.77;;
17606;SDS011;8922;52.240;20.980;2022-12-10T03:37:42;39.67;;;21.93;;
17606;SDS011;8922;52.240;20.980;2022-12-10T03:40:09;36.53;;;21.10;;
17606;SDS011;8922;52.240;20.980;2022-12-10T03:42:38;38.70;;;21.43;;
17606;SDS011;8922;52.240;20.980;2022-12-10T03:45:06;40.97;;;22.10;;
17606;SDS011;8922;52.240;20.980;2022-12-10T03:47:33;37.87;;;21.27;;
17606;SDS011;8922;52.240;20.980;2022-12-10T03:50:02;41.07;;;22.20;;
17606;SDS011;8922;52.240;20.980;2022-12-10T03:52:29;45.23;;;22.33;;
17606;SDS011;8922;52.240;20.980;2022-12-10T03:54:56;38.90;;;21.83;;
17606;SDS011;8922;52.240;20.980;2022-12-10T03:57:23;43.83;;;23.80;;
17606;SDS011;8922;52.240;20.980;2022-12-10T03:59:50;41.90;;;22.83;;
17606;SDS011;8922;52.240;20.980;2022-12-10T04:02:17;41.13;;;23.70;;
17606;SDS011;8922;52.240;20.980;2022-12-10T04:04:44;41.43;;;22.73;;
17606;SDS011;8922;52.240;20.980;2022-12-10T04:07:12;46.00;;;23.80;;
17606;SDS011;8922;52.240;20.980;2022-12-10T04:09:39;43.20;;;23.70;;
17606;SDS011;8922;52.240;20.980;2022-12-10T04:12:06;39.37;;;21.00;;
17606;SDS011;8922;52.240;20.980;2022-12-10T04:14:33;39.00;;;21.33;;
17606;SDS011;8922;52.240;20.980;2022-12-10T04:17:18;40.43;;;21.73;;
17606;SDS011;8922;52.240;20.980;2022-12-10T04:19:45;41.90;;;23.97;;
17606;SDS011;8922;52.240;20.980;2022-12-10T04:22:13;39.53;;;21.50;;
17606;SDS011;8922;52.240;20.980;2022-12-10T04:24:58;43.10;;;23.43;;
17606;SDS011;8922;52.240;20.980;2022-12-10T04:27:47;41.40;;;23.47;;
17606;SDS011;8922;52.240;20.980;2022-12-10T04:30:14;46.23;;;23.20;;
17606;SDS011;8922;52.240;20.980;2022-12-10T04:32:41;38.73;;;22.97;;
17606;SDS011;8922;52.240;20.980;2022-12-10T04:35:08;45.07;;;24.43;;
17606;SDS011;8922;52.240;20.980;2022-12-10T04:37:37;48.60;;;24.30;;
17606;SDS011;8922;52.240;20.980;2022-12-10T04:40:04;42.77;;;22.27;;
17606;SDS011;8922;52.240;20.980;2022-12-10T04:42:32;41.10;;;23.20;;
17606;SDS011;8922;52.240;20.980;2022-12-10T04:44:59;47.73;;;23.53;;
17606;SDS011;8922;52.240;20.980;2022-12-10T04:47:26;38.70;;;21.33;;
17606;SDS011;8922;52.240;20.980;2022-12-10T04:49:53;40.30;;;21.63;;
17606;SDS011;8922;52.240;20.980;2022-12-10T04:52:20;41.27;;;21.70;;
17606;SDS011;8922;52.240;20.980;2022-12-10T04:54:48;40.30;;;21.97;;
17606;SDS011;8922;52.240;20.980;2022-12-10T04:57:15;41.10;;;21.30;;
17606;SDS011;8922;52.240;20.980;2022-12-10T04:59:42;43.67;;;21.77;;
17606;SDS011;8922;52.240;20.980;2022-12-10T05:02:09;41.33;;;22.47;;
17606;SDS011;8922;52.240;20.980;2022-12-10T05:04:36;44.90;;;22.43;;
17606;SDS011;8922;52.240;20.980;2022-12-10T05:07:03;42.27;;;22.57;;
17606;SDS011;8922;52.240;20.980;2022-12-10T05:09:30;39.93;;;21.93;;
17606;SDS011;8922;52.240;20.980;2022-12-10T05:11:58;43.43;;;21.77;;
17606;SDS011;8922;52.240;20.980;2022-12-10T05:14:25;45.30;;;23.37;;
17606;SDS011;8922;52.240;20.980;2022-12-10T05:16:52;47.10;;;21.83;;
17606;SDS011;8922;52.240;20.980;2022-12-10T05:19:18;44.73;;;22.77;;
17606;SDS011;8922;52.240;20.980;2022-12-10T05:21:46;33.67;;;18.20;;
17606;SDS011;8922;52.240;20.980;2022-12-10T05:24:31;35.27;;;17.73;;
17606;SDS011;8922;52.240;20.980;2022-12-10T05:26:59;34.23;;;17.03;;
17606;SDS011;8922;52.240;20.980;2022-12-10T05:29:26;33.27;;;17.87;;
17606;SDS011;8922;52.240;20.980;2022-12-10T05:31:53;32.67;;;17.23;;
17606;SDS011;8922;52.240;20.980;2022-12-10T05:34:20;33.70;;;17.17;;
17606;SDS011;8922;52.240;20.980;2022-12-10T05:36:47;38.37;;;19.60;;
17606;SDS011;8922;52.240;20.980;2022-12-10T05:39:14;39.90;;;20.27;;
17606;SDS011;8922;52.240;20.980;2022-12-10T05:41:42;39.07;;;19.73;;
17606;SDS011;8922;52.240;20.980;2022-12-10T05:44:11;35.53;;;17.90;;
17606;SDS011;8922;52.240;20.980;2022-12-10T05:46:38;36.70;;;18.13;;
17606;SDS011;8922;52.240;20.980;2022-12-10T05:49:05;30.93;;;16.47;;
17606;SDS011;8922;52.240;20.980;2022-12-10T05:51:34;28.37;;;16.13;;
17606;SDS011;8922;52.240;20.980;2022-12-10T05:54:02;30.97;;;16.13;;
17606;SDS011;8922;52.240;20.980;2022-12-10T05:56:30;29.40;;;15.63;;
17606;SDS011;8922;52.240;20.980;2022-12-10T05:58:58;36.85;;;21.63;;
17606;SDS011;8922;52.240;20.980;2022-12-10T06:01:29;31.97;;;17.50;;
17606;SDS011;8922;52.240;20.980;2022-12-10T06:03:57;34.27;;;16.57;;
17606;SDS011;8922;52.240;20.980;2022-12-10T06:06:25;33.53;;;18.20;;
17606;SDS011;8922;52.240;20.980;2022-12-10T06:08:53;34.42;;;18.25;;
17606;SDS011;8922;52.240;20.980;2022-12-10T06:11:21;40.47;;;24.07;;
17606;SDS011;8922;52.240;20.980;2022-12-10T06:13:48;41.60;;;20.70;;
17606;SDS011;8922;52.240;20.980;2022-12-10T06:16:15;41.33;;;25.20;;
17606;SDS011;8922;52.240;20.980;2022-12-10T06:18:43;36.60;;;19.80;;
17606;SDS011;8922;52.240;20.980;2022-12-10T06:21:11;36.83;;;20.00;;
17606;SDS011;8922;52.240;20.980;2022-12-10T06:23:40;41.47;;;24.02;;
17606;SDS011;8922;52.240;20.980;2022-12-10T06:26:08;39.17;;;19.63;;
17606;SDS011;8922;52.240;20.980;2022-12-10T06:28:36;36.87;;;18.87;;
17606;SDS011;8922;52.240;20.980;2022-12-10T06:31:04;32.60;;;17.90;;
17606;SDS011;8922;52.240;20.980;2022-12-10T06:33:31;34.03;;;17.83;;
17606;SDS011;8922;52.240;20.980;2022-12-10T06:35:59;30.17;;;17.60;;
17606;SDS011;8922;52.240;20.980;2022-12-10T06:38:28;32.37;;;17.27;;
17606;SDS011;8922;52.240;20.980;2022-12-10T06:40:55;35.70;;;17.50;;
17606;SDS011;8922;52.240;20.980;2022-12-10T06:43:22;35.27;;;17.97;;
17606;SDS011;8922;52.240;20.980;2022-12-10T06:45:49;37.13;;;17.67;;
17606;SDS011;8922;52.240;20.980;2022-12-10T06:48:15;35.27;;;18.83;;
17606;SDS011;8922;52.240;20.980;2022-12-10T06:50:42;31.93;;;17.40;;
17606;SDS011;8922;52.240;20.980;2022-12-10T06:53:11;34.57;;;17.10;;
17606;SDS011;8922;52.240;20.980;2022-12-10T06:55:37;32.90;;;17.13;;
17606;SDS011;8922;52.240;20.980;2022-12-10T06:58:04;33.50;;;17.17;;
17606;SDS011;8922;52.240;20.980;2022-12-10T07:00:31;32.33;;;16.43;;
17606;SDS011;8922;52.240;20.980;2022-12-10T07:02:58;40.37;;;17.50;;
17606;SDS011;8922;52.240;20.980;2022-12-10T07:05:25;37.43;;;17.83;;
17606;SDS011;8922;52.240;20.980;2022-12-10T07:07:52;38.07;;;16.93;;
17606;SDS011;8922;52.240;20.980;2022-12-10T07:10:20;33.87;;;17.63;;
17606;SDS011;8922;52.240;20.980;2022-12-10T07:12:47;36.07;;;17.47;;
17606;SDS011;8922;52.240;20.980;2022-12-10T07:15:14;39.97;;;16.67;;
17606;SDS011;8922;52.240;20.980;2022-12-10T07:17:41;37.27;;;17.77;;
17606;SDS011;8922;52.240;20.980;2022-12-10T07:20:09;35.83;;;17.27;;
17606;SDS011;8922;52.240;20.980;2022-12-10T07:22:36;38.87;;;17.17;;
17606;SDS011;8922;52.240;20.980;2022-12-10T07:25:04;37.97;;;17.03;;
17606;SDS011;8922;52.240;20.980;2022-12-10T07:27:32;37.23;;;17.00;;
17606;SDS011;8922;52.240;20.980;2022-12-10T07:29:59;32.23;;;17.33;;
17606;SDS011;8922;52.240;20.980;2022-12-10T07:32:26;37.27;;;17.67;;
17606;SDS011;8922;52.240;20.980;2022-12-10T07:34:54;38.20;;;17.03;;
17606;SDS011;8922;52.240;20.980;2022-12-10T07:37:20;36.63;;;17.50;;
17606;SDS011;8922;52.240;20.980;2022-12-10T07:39:47;33.20;;;17.23;;
17606;SDS011;8922;52.240;20.980;2022-12-10T07:42:14;42.53;;;21.35;;
17606;SDS011;8922;52.240;20.980;2022-12-10T07:44:42;45.53;;;23.23;;
17606;SDS011;8922;52.240;20.980;2022-12-10T07:47:09;38.40;;;18.90;;
17606;SDS011;8922;52.240;20.980;2022-12-10T07:49:36;41.83;;;21.88;;
17606;SDS011;8922;52.240;20.980;2022-12-10T07:52:03;37.90;;;17.77;;
17606;SDS011;8922;52.240;20.980;2022-12-10T07:54:30;38.07;;;18.40;;
17606;SDS011;8922;52.240;20.980;2022-12-10T07:56:57;37.73;;;17.27;;
17606;SDS011;8922;52.240;20.980;2022-12-10T07:59:29;36.10;;;18.03;;
17606;SDS011;8922;52.240;20.980;2022-12-10T08:01:57;36.43;;;17.50;;
17606;SDS011;8922;52.240;20.980;2022-12-10T08:04:24;39.13;;;18.60;;
17606;SDS011;8922;52.240;20.980;2022-12-10T08:06:54;35.43;;;16.97;;
17606;SDS011;8922;52.240;20.980;2022-12-10T08:09:21;36.73;;;17.17;;
17606;SDS011;8922;52.240;20.980;2022-12-10T08:11:48;35.10;;;16.43;;
17606;SDS011;8922;52.240;20.980;2022-12-10T08:14:14;35.33;;;16.77;;
17606;SDS011;8922;52.240;20.980;2022-12-10T08:16:41;36.80;;;16.77;;
17606;SDS011;8922;52.240;20.980;2022-12-10T08:19:09;34.23;;;17.00;;
17606;SDS011;8922;52.240;20.980;2022-12-10T08:21:36;33.67;;;17.00;;
17606;SDS011;8922;52.240;20.980;2022-12-10T08:24:03;31.83;;;16.33;;
17606;SDS011;8922;52.240;20.980;2022-12-10T08:26:31;31.53;;;15.30;;
17606;SDS011;8922;52.240;20.980;2022-12-10T08:28:59;32.10;;;15.23;;
17606;SDS011;8922;52.240;20.980;2022-12-10T08:31:26;33.27;;;15.00;;
17606;SDS011;8922;52.240;20.980;2022-12-10T08:33:54;34.77;;;15.40;;
17606;SDS011;8922;52.240;20.980;2022-12-10T08:36:22;27.93;;;14.67;;
17606;SDS011;8922;52.240;20.980;2022-12-10T08:38:49;29.77;;;13.97;;
17606;SDS011;8922;52.240;20.980;2022-12-10T08:41:17;32.07;;;15.73;;
17606;SDS011;8922;52.240;20.980;2022-12-10T08:43:45;34.93;;;15.87;;
17606;SDS011;8922;52.240;20.980;2022-12-10T08:46:13;27.67;;;14.83;;
17606;SDS011;8922;52.240;20.980;2022-12-10T08:48:40;30.23;;;14.23;;
17606;SDS011;8922;52.240;20.980;2022-12-10T08:51:08;32.77;;;15.17;;
17606;SDS011;8922;52.240;20.980;2022-12-10T08:53:38;28.97;;;13.20;;
17606;SDS011;8922;52.240;20.980;2022-12-10T08:56:05;27.00;;;13.37;;
17606;SDS011;8922;52.240;20.980;2022-12-10T08:58:33;33.20;;;14.70;;
17606;SDS011;8922;52.240;20.980;2022-12-10T09:01:00;29.50;;;14.83;;
17606;SDS011;8922;52.240;20.980;2022-12-10T09:03:32;33.23;;;14.93;;
17606;SDS011;8922;52.240;20.980;2022-12-10T09:06:01;32.33;;;15.17;;
17606;SDS011;8922;52.240;20.980;2022-12-10T09:08:29;29.13;;;14.57;;
17606;SDS011;8922;52.240;20.980;2022-12-10T09:10:57;28.33;;;15.30;;
17606;SDS011;8922;52.240;20.980;2022-12-10T09:13:24;29.17;;;14.03;;
17606;SDS011;8922;52.240;20.980;2022-12-10T09:15:51;26.80;;;12.80;;
17606;SDS011;8922;52.240;20.980;2022-12-10T09:18:19;29.73;;;13.90;;
17606;SDS011;8922;52.240;20.980;2022-12-10T09:20:46;33.07;;;15.70;;
17606;SDS011;8922;52.240;20.980;2022-12-10T09:23:13;34.23;;;14.77;;
17606;SDS011;8922;52.240;20.980;2022-12-10T09:25:40;29.03;;;14.33;;
17606;SDS011;8922;52.240;20.980;2022-12-10T09:28:08;31.20;;;14.13;;
17606;SDS011;8922;52.240;20.980;2022-12-10T09:30:35;28.20;;;14.17;;
17606;SDS011;8922;52.240;20.980;2022-12-10T09:33:02;31.00;;;14.33;;
17606;SDS011;8922;52.240;20.980;2022-12-10T09:35:29;26.57;;;13.83;;
17606;SDS011;8922;52.240;20.980;2022-12-10T09:37:56;28.40;;;14.37;;
17606;SDS011;8922;52.240;20.980;2022-12-10T09:40:24;33.23;;;14.77;;
17606;SDS011;8922;52.240;20.980;2022-12-10T09:42:58;30.23;;;14.67;;
17606;SDS011;8922;52.240;20.980;2022-12-10T09:45:36;28.60;;;13.87;;
17606;SDS011;8922;52.240;20.980;2022-12-10T09:48:12;28.87;;;13.73;;
17606;SDS011;8922;52.240;20.980;2022-12-10T09:50:48;29.03;;;14.90;;
17606;SDS011;8922;52.240;20.980;2022-12-10T09:53:21;29.67;;;13.13;;
17606;SDS011;8922;52.240;20.980;2022-12-10T09:55:50;27.67;;;13.63;;
17606;SDS011;8922;52.240;20.980;2022-12-10T09:58:18;27.60;;;13.77;;
17606;SDS011;8922;52.240;20.980;2022-12-10T10:00:50;27.33;;;14.73;;
17606;SDS011;8922;52.240;20.980;2022-12-10T10:03:21;25.63;;;13.23;;
17606;SDS011;8922;52.240;20.980;2022-12-10T10:05:49;24.43;;;14.27;;
17606;SDS011;8922;52.240;20.980;2022-12-10T10:08:21;28.20;;;14.67;;
17606;SDS011;8922;52.240;20.980;2022-12-10T10:10:53;32.50;;;14.97;;
17606;SDS011;8922;52.240;20.980;2022-12-10T10:13:22;28.97;;;13.60;;
17606;SDS011;8922;52.240;20.980;2022-12-10T10:15:57;31.83;;;13.67;;
17606;SDS011;8922;52.240;20.980;2022-12-10T10:18:38;28.17;;;13.77;;
17606;SDS011;8922;52.240;20.980;2022-12-10T10:21:11;28.87;;;14.73;;
17606;SDS011;8922;52.240;20.980;2022-12-10T10:23:43;30.87;;;14.33;;
17606;SDS011;8922;52.240;20.980;2022-12-10T10:26:11;25.60;;;13.90;;
17606;SDS011;8922;52.240;20.980;2022-12-10T10:28:38;24.17;;;12.93;;
17606;SDS011;8922;52.240;20.980;2022-12-10T10:31:12;24.17;;;14.27;;
17606;SDS011;8922;52.240;20.980;2022-12-10T10:33:47;23.77;;;12.30;;
17606;SDS011;8922;52.240;20.980;2022-12-10T10:36:22;26.63;;;13.43;;
17606;SDS011;8922;52.240;20.980;2022-12-10T10:38:50;25.90;;;14.67;;
17606;SDS011;8922;52.240;20.980;2022-12-10T10:41:17;25.80;;;13.20;;
17606;SDS011;8922;52.240;20.980;2022-12-10T10:43:45;29.07;;;14.03;;
17606;SDS011;8922;52.240;20.980;2022-12-10T10:46:15;22.47;;;12.67;;
17606;SDS011;8922;52.240;20.980;2022-12-10T10:48:44;30.80;;;13.87;;
17606;SDS011;8922;52.240;20.980;2022-12-10T10:51:15;29.63;;;14.47;;
17606;SDS011;8922;52.240;20.980;2022-12-10T10:53:46;27.97;;;14.70;;
17606;SDS011;8922;52.240;20.980;2022-12-10T10:56:15;24.47;;;12.27;;
17606;SDS011;8922;52.240;20.980;2022-12-10T10:58:47;23.63;;;13.40;;
17606;SDS011;8922;52.240;20.980;2022-12-10T11:01:20;30.07;;;14.70;;
17606;SDS011;8922;52.240;20.980;2022-12-10T11:03:48;22.97;;;13.30;;
17606;SDS011;8922;52.240;20.980;2022-12-10T11:06:19;29.17;;;14.63;;
17606;SDS011;8922;52.240;20.980;2022-12-10T11:08:47;26.67;;;13.47;;
17606;SDS011;8922;52.240;20.980;2022-12-10T11:11:17;24.90;;;13.97;;
17606;SDS011;8922;52.240;20.980;2022-12-10T11:13:47;26.23;;;12.77;;
17606;SDS011;8922;52.240;20.980;2022-12-10T11:16:17;26.40;;;14.43;;
17606;SDS011;8922;52.240;20.980;2022-12-10T11:18:56;29.67;;;13.80;;
17606;SDS011;8922;52.240;20.980;2022-12-10T11:21:27;28.80;;;14.13;;
17606;SDS011;8922;52.240;20.980;2022-12-10T11:23:55;25.30;;;14.07;;
17606;SDS011;8922;52.240;20.980;2022-12-10T11:26:39;26.10;;;14.57;;
17606;SDS011;8922;52.240;20.980;2022-12-10T11:29:29;26.87;;;13.30;;
17606;SDS011;8922;52.240;20.980;2022-12-10T11:32:14;29.10;;;13.50;;
17606;SDS011;8922;52.240;20.980;2022-12-10T11:34:56;26.17;;;13.53;;
17606;SDS011;8922;52.240;20.980;2022-12-10T11:37:29;27.20;;;14.40;;
17606;SDS011;8922;52.240;20.980;2022-12-10T11:40:12;33.60;;;14.03;;
17606;SDS011;8922;52.240;20.980;2022-12-10T11:42:50;34.33;;;16.40;;
17606;SDS011;8922;52.240;20.980;2022-12-10T11:45:28;39.47;;;15.73;;
17606;SDS011;8922;52.240;20.980;2022-12-10T11:48:12;38.43;;;15.57;;
17606;SDS011;8922;52.240;20.980;2022-12-10T11:50:47;34.03;;;15.80;;
17606;SDS011;8922;52.240;20.980;2022-12-10T11:56:18;35.40;;;15.67;;
17606;SDS011;8922;52.240;20.980;2022-12-10T11:58:56;35.27;;;15.47;;
17606;SDS011;8922;52.240;20.980;2022-12-10T12:01:35;36.30;;;15.40;;
17606;SDS011;8922;52.240;20.980;2022-12-10T12:04:22;32.90;;;14.87;;
17606;SDS011;8922;52.240;20.980;2022-12-10T12:06:56;34.73;;;15.23;;
17606;SDS011;8922;52.240;20.980;2022-12-10T12:09:48;32.50;;;13.53;;
17606;SDS011;8922;52.240;20.980;2022-12-10T12:12:27;31.60;;;14.50;;
17606;SDS011;8922;52.240;20.980;2022-12-10T12:15:03;34.70;;;15.63;;
17606;SDS011;8922;52.240;20.980;2022-12-10T12:17:40;32.40;;;15.93;;
17606;SDS011;8922;52.240;20.980;2022-12-10T12:20:14;35.17;;;15.90;;
17606;SDS011;8922;52.240;20.980;2022-12-10T12:22:46;35.47;;;15.57;;
17606;SDS011;8922;52.240;20.980;2022-12-10T12:25:17;31.40;;;14.87;;
17606;SDS011;8922;52.240;20.980;2022-12-10T12:27:50;34.63;;;15.50;;
17606;SDS011;8922;52.240;20.980;2022-12-10T12:30:22;32.47;;;15.17;;
17606;SDS011;8922;52.240;20.980;2022-12-10T12:32:51;28.33;;;13.10;;
17606;SDS011;8922;52.240;20.980;2022-12-10T12:35:26;29.53;;;13.63;;
17606;SDS011;8922;52.240;20.980;2022-12-10T12:38:00;33.93;;;13.97;;
17606;SDS011;8922;52.240;20.980;2022-12-10T12:40:39;25.60;;;12.87;;
17606;SDS011;8922;52.240;20.980;2022-12-10T12:43:10;31.90;;;13.67;;
17606;SDS011;8922;52.240;20.980;2022-12-10T12:45:43;32.00;;;14.63;;
17606;SDS011;8922;52.240;20.980;2022-12-10T12:48:14;35.53;;;15.07;;
17606;SDS011;8922;52.240;20.980;2022-12-10T12:50:51;27.57;;;13.97;;
17606;SDS011;8922;52.240;20.980;2022-12-10T12:53:21;30.77;;;14.07;;
17606;SDS011;8922;52.240;20.980;2022-12-10T12:55:54;32.63;;;14.00;;
17606;SDS011;8922;52.240;20.980;2022-12-10T12:58:26;28.97;;;14.03;;
17606;SDS011;8922;52.240;20.980;2022-12-10T13:01:03;28.10;;;14.07;;
17606;SDS011;8922;52.240;20.980;2022-12-10T13:03:38;28.43;;;14.00;;
17606;SDS011;8922;52.240;20.980;2022-12-10T13:06:19;27.70;;;14.10;;
17606;SDS011;8922;52.240;20.980;2022-12-10T13:08:48;29.13;;;13.27;;
17606;SDS011;8922;52.240;20.980;2022-12-10T13:11:29;26.37;;;13.50;;
17606;SDS011;8922;52.240;20.980;2022-12-10T13:17:01;27.37;;;13.13;;
17606;SDS011;8922;52.240;20.980;2022-12-10T13:19:49;27.83;;;13.63;;
17606;SDS011;8922;52.240;20.980;2022-12-10T13:25:12;30.67;;;14.07;;
17606;SDS011;8922;52.240;20.980;2022-12-10T13:27:41;29.07;;;13.83;;
17606;SDS011;8922;52.240;20.980;2022-12-10T13:30:28;33.30;;;15.57;;
17606;SDS011;8922;52.240;20.980;2022-12-10T13:33:11;34.50;;;15.47;;
17606;SDS011;8922;52.240;20.980;2022-12-10T13:35:43;28.00;;;14.77;;
17606;SDS011;8922;52.240;20.980;2022-12-10T13:38:21;27.73;;;14.73;;
17606;SDS011;8922;52.240;20.980;2022-12-10T13:40:59;27.50;;;15.13;;
17606;SDS011;8922;52.240;20.980;2022-12-10T13:43:53;29.70;;;15.77;;
17606;SDS011;8922;52.240;20.980;2022-12-10T13:46:59;30.37;;;15.40;;
17606;SDS011;8922;52.240;20.980;2022-12-10T13:49:30;32.10;;;14.63;;
17606;SDS011;8922;52.240;20.980;2022-12-10T13:52:12;34.03;;;19.88;;
17606;SDS011;8922;52.240;20.980;2022-12-10T13:57:40;32.83;;;19.60;;
17606;SDS011;8922;52.240;20.980;2022-12-10T14:00:20;32.83;;;19.85;;
17606;SDS011;8922;52.240;20.980;2022-12-10T14:02:58;29.63;;;15.97;;
17606;SDS011;8922;52.240;20.980;2022-12-10T14:05:39;31.17;;;16.13;;
17606;SDS011;8922;52.240;20.980;2022-12-10T14:08:16;27.37;;;14.33;;
17606;SDS011;8922;52.240;20.980;2022-12-10T14:10:48;25.60;;;15.27;;
17606;SDS011;8922;52.240;20.980;2022-12-10T14:13:17;29.60;;;15.17;;
17606;SDS011;8922;52.240;20.980;2022-12-10T14:15:51;29.17;;;15.33;;
17606;SDS011;8922;52.240;20.980;2022-12-10T14:18:21;27.87;;;15.00;;
17606;SDS011;8922;52.240;20.980;2022-12-10T14:20:50;24.27;;;13.07;;
17606;SDS011;8922;52.240;20.980;2022-12-10T14:23:21;23.93;;;14.23;;
17606;SDS011;8922;52.240;20.980;2022-12-10T14:26:04;24.27;;;14.07;;
17606;SDS011;8922;52.240;20.980;2022-12-10T14:28:37;22.97;;;13.47;;
17606;SDS011;8922;52.240;20.980;2022-12-10T14:31:10;22.83;;;13.80;;
17606;SDS011;8922;52.240;20.980;2022-12-10T14:33:41;22.10;;;13.30;;
17606;SDS011;8922;52.240;20.980;2022-12-10T14:36:19;21.20;;;12.80;;
17606;SDS011;8922;52.240;20.980;2022-12-10T14:38:53;24.20;;;13.97;;
17606;SDS011;8922;52.240;20.980;2022-12-10T14:41:22;22.07;;;13.27;;
17606;SDS011;8922;52.240;20.980;2022-12-10T14:43:50;23.70;;;13.47;;
17606;SDS011;8922;52.240;20.980;2022-12-10T14:46:18;27.80;;;14.23;;
17606;SDS011;8922;52.240;20.980;2022-12-10T14:48:48;27.27;;;13.50;;
17606;SDS011;8922;52.240;20.980;2022-12-10T14:51:18;23.73;;;15.13;;